This is the latest recevied weather packets stored in our database for station/object GW1599. If no packets are shown the sender has not sent any weather packets the latest 10 day(s).
| Time | Temp. | Humidity | Pressure | Rain* | Wind** | Luminosity | Snow |
|---|---|---|---|---|---|---|---|
| 1777917800 | 23.33° C | 54% | 1011.8 hPa | 1.52 mm | - | - | - |
| 1777917468 | 23.33° C | 55% | 1011.8 hPa | 1.52 mm | - | - | - |
| 1777915633 | 21.67° C | 58% | 1012.5 hPa | 1.52 mm | - | - | - |
| 1777913498 | 21.11° C | 60% | 1013.2 hPa | 1.52 mm | - | - | - |
| 1777911690 | 17.78° C | 69% | 1013.5 hPa | 1.52 mm | - | - | - |
| 1777911312 | 17.78° C | 69% | 1013.5 hPa | 1.52 mm | - | - | - |
| 1777910082 | 16.67° C | 70% | 1014.2 hPa | 1.52 mm | - | - | - |
| 1777908269 | 15.56° C | 71% | 1014.5 hPa | 1.52 mm | - | - | - |
| 1777907533 | 15.56° C | 71% | 1014.5 hPa | 1.52 mm | - | - | - |
| 1777906483 | 15.56° C | 70% | 1014.9 hPa | 1.52 mm | - | - | - |
| 1777903613 | 15° C | 72% | 1014.9 hPa | 1.52 mm | - | - | - |
| 1777902870 | 13.89° C | 72% | 1014.9 hPa | 1.52 mm | - | - | - |
| 1777902163 | 13.89° C | 74% | 1014.5 hPa | 1.52 mm | - | - | - |
| 1777898905 | 10° C | 97% | 1014.5 hPa | 1.52 mm | - | - | - |
| 1777896405 | 7.22° C | 96% | 1014.9 hPa | 1.52 mm | - | - | - |
| 1777895323 | 6.11° C | 95% | 1014.9 hPa | 1.52 mm | - | - | - |
| 1777892430 | 5.56° C | 94% | 1014.9 hPa | 1.52 mm | - | - | - |
| 1777888488 | 6.11° C | 94% | 1014.9 hPa | 1.52 mm | - | - | - |
| 1777888097 | 6.11° C | 94% | 1014.9 hPa | 1.52 mm | - | - | - |
| 1777885574 | 6.67° C | 93% | 1015.5 hPa | 1.52 mm | - | - | - |
| 1777884141 | 6.67° C | 93% | 1015.5 hPa | 1.52 mm | - | - | - |
| 1777882695 | 7.22° C | 93% | 1015.5 hPa | 1.52 mm | - | - | - |
| 1777882336 | 7.22° C | 93% | 1015.5 hPa | 1.52 mm | - | - | - |
| 1777880176 | 7.78° C | 92% | 1015.9 hPa | 1.52 mm | - | - | - |
| 1777873000 | 8.33° C | 92% | 1016.9 hPa | 1.52 mm | - | - | - |
* Rain since midnight (hover to see other rain measurements)
** Current wind speed in m/s (hover to see current wind gust speed)